Nong Khai, Thailand
Current Conditions -  °F | °C
As of 7:30 AM on Wednesday 26 Nov 2014 (Local Time) from VLVT Reporting Station
Haze Haze  
Wind Chill: 21°   Ceiling: Unl
Heat Index: 21°   Visibility: 3mi
Dew Point: 19°   Wind: 2mph
Humidity: 88%   Direction: 40°NE
Pressure: 29.85"   Gusts: NA
Location:  17.88°N, 102.74°E
Report Text: VLVT 260030Z 04002KT 5000 BR FEW050 21/19 Q1011 NOSIG
Loading
Personal Weather Stations






























Interactive Weather Map New forecast layout! Learn more

10-Day Weather Forecast

Advertisements
Track Severe Weather on mobile